Latest Weather Observations for Rolleston Airport

IDQ60801

Issued at 7:32 am EST Friday 20 October 2017 (issued every 30 minutes, with the page automatically refreshed every 10 minutes)

About weather observations | Map of weather stations | Latest weather observations for QLD | Other Formats
Station Details ID: 035129 Name: ROLLESTON AIRPORT Lat: -24.46 Lon: 148.63 Height: 219.45 m
Data from the previous 72 hours. | See also: Recent months at Rolleston Airport
Date/Time
EST
Temp
°C
App
Temp
°C
Dew
Point
°C
Rel
Hum
%
Delta-T
°C
Wind Press
QNH
hPa
Press
MSL
hPa
Rain since
9am
mm
Dir  Spd
km/h
Gust
km/h
Spd
kts
Gust
kts
20/07:30am 19.9 20.8 16.5 81 2.1 SE 7 11 4 6 1021.5 1020.5 0.0
20/07:00am 18.4 19.9 15.8 85 1.5 SSE 2 4 1 2 1021.5 1020.5 0.0
20/06:30am 17.2 19.4 16.4 95 0.5 CALM 0 0 0 0 1021.2 1020.3 0.0
20/06:00am 16.7 18.9 16.5 99 0.1 CALM 0 0 0 0 1020.9 1019.9 0.0
20/05:30am 16.4 18.5 16.2 99 0.1 CALM 0 0 0 0 1020.8 1019.8 0.0
20/05:00am 16.6 18.7 16.3 98 0.2 CALM 0 4 0 2 1020.7 1019.7 0.0
20/04:30am 16.9 19.1 16.6 98 0.2 CALM 0 0 0 0 1020.5 1019.5 0.0
20/04:00am 16.9 18.7 16.4 97 0.3 SE 2 4 1 2 1020.3 1019.3 0.0
20/03:30am 17.4 18.5 16.6 95 0.5 ESE 6 6 3 3 1020.0 1019.0 0.0
20/03:00am 17.3 18.6 16.2 93 0.7 SSE 4 6 2 3 1020.1 1019.1 0.0
20/02:30am 18.0 19.6 16.9 93 0.7 E 4 6 2 3 1020.2 1019.2 0.0
20/02:00am 17.9 19.4 16.6 92 0.8 SE 4 4 2 2 1020.6 1019.6 0.0
20/01:30am 18.6 20.1 16.6 88 1.2 E 4 6 2 3 1020.8 1019.8 0.0
20/01:00am 19.0 20.6 16.8 87 1.3 E 4 7 2 4 1021.1 1020.1 0.0
20/12:30am 19.4 20.4 16.8 85 1.6 E 7 13 4 7 1021.5 1020.5 0.0
20/12:00am 19.7 21.0 17.1 85 1.6 E 6 11 3 6 1021.7 1020.7 0.0
 
Date/Time
EST
Temp
°C
App
Temp
°C
Dew
Point
°C
Rel
Hum
%
Delta-T
°C
Wind Press
QNH
hPa
Press
MSL
hPa
Rain since
9am
mm
Dir  Spd
km/h
Gust
km/h
Spd
kts
Gust
kts
19/11:30pm 20.4 21.6 17.4 83 1.9 E 7 11 4 6 1021.9 1020.9 0.0
19/11:00pm 21.1 22.1 17.7 81 2.1 ENE 9 15 5 8 1022.2 1021.2 0.0
19/10:30pm 21.3 21.9 17.7 80 2.2 ENE 11 17 6 9 1022.5 1021.5 0.0
19/10:00pm 21.2 23.4 18.4 84 1.8 NE 4 9 2 5 1022.4 1021.4 0.0
19/09:30pm 21.1 23.1 18.7 86 1.5 E 6 7 3 4 1022.5 1021.5 0.0
19/09:00pm 21.0 23.2 18.4 85 1.6 E 4 6 2 3 1022.2 1021.2 0.0
19/08:30pm 21.4 23.5 19.0 86 1.5 ESE 6 7 3 4 1021.9 1020.9 0.0
19/08:00pm 21.7 24.2 19.1 85 1.7 E 4 7 2 4 1021.7 1020.7 0.0
19/07:30pm 21.8 23.8 19.2 85 1.7 ENE 7 11 4 6 1021.5 1020.5 0.0
19/07:00pm 21.9 22.6 18.9 83 1.9 ENE 13 17 7 9 1021.2 1020.3 0.0
19/06:30pm 22.2 23.7 18.8 81 2.2 ENE 9 17 5 9 1020.8 1019.8 0.0
19/06:00pm 22.8 23.9 18.8 78 2.5 SE 11 15 6 8 1020.4 1019.4 0.0
19/05:30pm 22.1 22.9 19.1 83 1.9 ESE 13 17 7 9 1020.3 1019.3 0.0
19/05:00pm 24.5 25.5 18.7 70 3.7 E 11 19 6 10 1020.1 1019.1 0.0
19/04:30pm 24.4 25.1 17.9 67 4.1 E 11 17 6 9 1019.9 1018.9 0.0
19/04:00pm 24.7 24.7 18.2 67 4.1 ESE 15 26 8 14 1019.7 1018.7 0.0
19/03:30pm 24.4 23.2 17.6 66 4.3 ESE 20 26 11 14 1019.6 1018.6 0.0
19/03:00pm 24.7 24.1 18.4 68 4.0 ESE 19 24 10 13 1019.8 1018.8 0.0
19/02:30pm 24.3 23.6 18.2 68 3.9 SE 19 26 10 14 1020.0 1019.0 0.0
19/02:00pm 24.1 24.1 18.1 69 3.8 ESE 15 22 8 12 1020.4 1019.4 0.0
19/01:30pm 24.2 23.7 17.9 68 4.0 ESE 17 24 9 13 1020.6 1019.6 0.0
19/01:00pm 24.6 24.8 18.5 69 3.9 E 15 22 8 12 1020.7 1019.7 0.0
19/12:30pm 24.0 23.8 17.7 68 4.0 ESE 15 22 8 12 1020.9 1019.9 0.0
19/12:00pm 24.4 24.4 19.0 72 3.5 ESE 17 26 9 14 1020.9 1019.9 0.0
19/11:30am 24.2 23.6 18.4 70 3.7 E 19 30 10 16 1021.2 1020.3 0.0
19/11:00am 23.7 22.6 17.7 69 3.8 ESE 20 30 11 16 1021.3 1020.4 0.0
19/10:30am 23.7 22.8 18.1 71 3.5 ESE 20 28 11 15 1021.5 1020.5 0.0
19/10:00am 23.0 22.1 18.1 74 3.1 ESE 20 28 11 15 1021.7 1020.7 0.0
19/09:30am 22.3 21.9 18.1 77 2.6 ESE 17 26 9 14 1021.9 1020.9 0.0
19/09:00am 22.3 21.4 18.3 78 2.5 ESE 20 28 11 15 1022.3 1021.3 21.6
19/08:30am 22.2 21.5 18.6 80 2.3 ESE 20 30 11 16 1022.3 1021.3 21.6
19/08:00am 21.7 20.9 18.1 80 2.3 ESE 19 28 10 15 1022.1 1021.1 21.6
19/07:30am 21.2 20.4 18.0 82 2.0 ESE 19 24 10 13 1021.8 1020.8 21.6
19/07:00am 20.7 21.6 18.5 87 1.4 ESE 11 15 6 8 1021.6 1020.6 21.6
19/06:30am 20.1 21.4 18.4 90 1.1 SE 9 13 5 7 1021.5 1020.5 21.6
19/06:00am 19.6 20.8 18.3 92 0.8 SE 9 11 5 6 1020.9 1019.9 21.6
19/05:30am 19.4 20.9 18.1 92 0.8 SE 7 9 4 5 1020.7 1019.7 21.6
19/05:00am 19.5 21.1 18.3 93 0.7 SE 7 11 4 6 1020.2 1019.2 21.6
19/04:30am 19.7 21.3 18.2 91 0.9 SE 7 13 4 7 1020.0 1019.0 21.6
19/04:00am 19.6 21.2 18.3 92 0.8 SE 7 11 4 6 1019.9 1018.9 21.6
19/03:30am 19.7 21.0 18.5 93 0.8 SE 9 13 5 7 1019.9 1018.9 21.6
19/03:00am 19.8 21.2 18.6 93 0.8 SE 9 13 5 7 1019.9 1018.9 21.6
19/02:30am 19.9 20.5 18.6 92 0.8 ESE 13 20 7 11 1020.1 1019.1 21.6
19/02:00am 19.9 20.5 18.6 92 0.8 ESE 13 19 7 10 1020.2 1019.2 21.6
19/01:30am 20.0 20.8 19.0 94 0.6 SE 13 17 7 9 1020.5 1019.5 21.6
19/01:00am 20.0 20.5 19.2 95 0.5 SE 15 20 8 11 1020.6 1019.6 21.6
19/12:30am 20.1 20.6 19.3 95 0.5 ESE 15 20 8 11 1020.9 1019.9 21.6
19/12:00am 20.2 20.5 19.7 97 0.3 ESE 17 20 9 11 1020.9 1019.9 21.6
 
Date/Time
EST
Temp
°C
App
Temp
°C
Dew
Point
°C
Rel
Hum
%
Delta-T
°C
Wind Press
QNH
hPa
Press
MSL
hPa
Rain since
9am
mm
Dir  Spd
km/h
Gust
km/h
Spd
kts
Gust
kts
18/11:30pm 20.3 21.6 20.1 99 0.1 ESE 13 19 7 10 1020.9 1019.9 21.6
18/11:00pm 20.4 21.8 20.4 100 0.0 ESE 13 19 7 10 1020.9 1019.9 21.4
18/10:30pm 20.5 22.4 20.5 100 0.0 ESE 11 20 6 11 1021.0 1020.0 21.4
18/10:00pm 20.6 21.2 20.3 98 0.2 ESE 17 26 9 14 1021.0 1020.0 20.2
18/09:30pm 21.3 23.2 20.5 95 0.5 ESE 11 20 6 11 1020.7 1019.7 19.8
18/09:00pm 21.3 23.6 20.6 96 0.5 ESE 9 15 5 8 1020.4 1019.4 19.8
18/08:30pm 21.4 23.1 20.9 97 0.3 ESE 13 19 7 10 1020.2 1019.2 19.8
18/08:00pm 21.6 22.5 20.8 95 0.5 E 17 22 9 12 1019.8 1018.8 19.8
18/07:30pm 21.6 24.3 21.3 98 0.2 ESE 9 15 5 8 1019.4 1018.4 19.8
18/07:00pm 21.7 23.1 21.0 96 0.5 E 15 20 8 11 1018.8 1017.8 19.4
18/06:30pm 22.1 25.4 21.9 99 0.1 ESE 7 13 4 7 1018.2 1017.2 18.4
18/06:00pm 22.1 24.6 21.8 98 0.2 ESE 11 17 6 9 1017.9 1016.9 17.8
18/05:30pm 21.9 25.1 21.7 99 0.1 ESE 7 11 4 6 1017.4 1016.4 16.8
18/05:00pm 21.6 24.0 21.6 100 0.0 ESE 11 19 6 10 1017.1 1016.0 16.6
18/04:30pm 20.6 21.4 20.6 100 0.0 ENE 17 28 9 15 1016.8 1015.7 15.0
18/04:13pm 21.0 19.5 19.5 91 1.0 NE 26 50 14 27 1016.8 1015.7 5.6
18/04:00pm 24.5 24.6 20.0 76 2.9 E 19 28 10 15 1016.0 1015.0 3.2
18/03:30pm 24.0 24.1 20.3 80 2.4 E 20 30 11 16 1015.9 1014.9 3.2
18/03:00pm 24.7 23.7 20.4 77 2.8 ESE 26 39 14 21 1015.7 1014.7 3.2
18/02:30pm 26.3 25.7 21.3 74 3.3 E 26 41 14 22 1015.8 1014.8 3.2
18/02:00pm 25.9 25.0 20.7 73 3.4 E 26 39 14 21 1015.9 1014.9 3.2
18/01:30pm 25.2 24.8 20.2 74 3.3 E 22 32 12 17 1016.2 1015.2 3.2
18/01:00pm 24.0 27.2 23.1 95 0.6 E 11 17 6 9 1016.8 1015.7 3.2
18/12:30pm 22.2 23.7 21.2 94 0.7 NE 15 24 8 13 1017.2 1016.1 2.8
18/12:00pm 23.8 25.7 20.5 82 2.2 E 11 19 6 10 1017.2 1016.1 0.8
18/11:30am 23.4 24.2 21.3 88 1.4 E 19 28 10 15 1017.5 1016.5 0.4
18/11:00am 25.0 25.5 20.0 74 3.3 E 17 24 9 13 1017.8 1016.8 0.0
18/10:30am 24.6 25.3 19.7 74 3.2 E 15 24 8 13 1018.1 1017.1 0.0
18/10:00am 23.8 24.1 19.5 77 2.8 ESE 17 28 9 15 1018.4 1017.4 0.0
18/09:30am 23.5 23.8 20.4 83 2.0 ESE 19 28 10 15 1018.6 1017.6 0.0
18/09:00am 23.0 23.5 20.9 88 1.4 ESE 19 28 10 15 1018.6 1017.6 2.8
18/08:30am 22.1 22.8 20.4 90 1.1 ESE 17 22 9 12 1018.4 1017.4 2.8
18/08:00am 21.6 22.1 20.1 91 1.0 ESE 17 24 9 13 1017.9 1016.9 2.8
18/07:30am 20.9 23.0 20.9 100 0.0 SE 11 17 6 9 1017.4 1016.4 2.8
18/07:00am 20.0 22.6 20.0 100 0.0 SSE 6 11 3 6 1017.3 1016.3 2.8
18/06:30am 19.9 21.1 19.9 100 0.0 SE 13 17 7 9 1017.2 1016.1 2.6
18/06:00am 20.3 22.3 20.0 98 0.2 SE 9 15 5 8 1017.0 1015.9 2.6
18/05:30am 20.1 22.1 19.9 99 0.1 SE 9 11 5 6 1016.5 1015.5 2.6
18/05:00am 20.3 22.1 19.6 96 0.4 SE 9 13 5 7 1016.2 1015.2 2.6
18/04:30am 20.3 22.1 19.5 95 0.5 ESE 9 15 5 8 1015.9 1014.9 2.4
18/04:00am 20.3 22.1 19.5 95 0.5 E 9 13 5 7 1015.6 1014.6 2.4
18/03:30am 20.2 21.3 19.7 97 0.3 E 13 20 7 11 1015.2 1014.2 2.4
18/03:00am 20.0 21.2 19.8 99 0.1 ESE 13 20 7 11 1015.1 1014.1 2.2
18/02:30am 19.8 21.0 19.8 100 0.0 ESE 13 17 7 9 1015.3 1014.3 2.2
18/02:00am 19.7 20.8 19.7 100 0.0 SE 13 17 7 9 1015.4 1014.4 2.0
18/01:30am 19.9 20.6 19.7 99 0.1 SE 15 20 8 11 1015.8 1014.8 2.0
18/01:00am 20.1 21.4 19.4 96 0.4 SE 11 17 6 9 1015.9 1014.9 1.8
18/12:30am 20.3 21.1 19.1 93 0.8 SE 13 20 7 11 1016.2 1015.2 1.8
18/12:00am 20.4 21.1 18.9 91 0.9 ESE 13 20 7 11 1016.4 1015.4 1.8
 
Date/Time
EST
Temp
°C
App
Temp
°C
Dew
Point
°C
Rel
Hum
%
Delta-T
°C
Wind Press
QNH
hPa
Press
MSL
hPa
Rain since
9am
mm
Dir  Spd
km/h
Gust
km/h
Spd
kts
Gust
kts
17/11:30pm 20.5 21.2 18.8 90 1.1 ESE 13 22 7 12 1016.2 1015.2 1.8
17/11:00pm 20.5 21.0 19.3 93 0.8 ESE 15 20 8 11 1016.3 1015.3 1.8
17/10:30pm 20.4 21.5 19.6 95 0.5 SE 13 17 7 9 1016.4 1015.4 1.8
17/10:00pm 20.4 21.3 19.2 93 0.8 SE 13 19 7 10 1016.5 1015.5 1.8
17/09:30pm 20.4 20.9 19.2 93 0.8 SE 15 20 8 11 1016.2 1015.2 1.8
17/09:00pm 20.5 21.5 19.5 94 0.6 SE 13 19 7 10 1016.1 1015.1 1.8
17/08:30pm 20.6 21.2 19.4 93 0.8 SE 15 20 8 11 1015.9 1014.9 1.8
17/08:00pm 21.0 22.2 20.0 94 0.6 SE 13 20 7 11 1015.8 1014.8 1.8
17/07:30pm 20.7 22.9 20.5 99 0.1 SSE 9 13 5 7 1015.4 1014.4 1.8
17/07:00pm 20.6 23.0 20.1 97 0.3 S 7 13 4 7 1015.2 1014.2 1.8
17/06:30pm 21.1 23.3 19.6 91 1.0 S 7 11 4 6 1014.9 1013.9 0.6
17/06:00pm 21.1 23.5 19.6 91 1.0 S 6 11 3 6 1014.6 1013.6 0.6
17/05:30pm 21.0 23.1 19.3 90 1.1 S 7 13 4 7 1014.2 1013.2 0.6
17/05:00pm 21.4 23.0 19.9 91 1.0 SSE 11 15 6 8 1013.9 1012.9 0.6
17/04:30pm 21.5 22.6 19.6 89 1.2 E 13 20 7 11 1013.5 1012.5 0.6
17/04:00pm 20.8 20.0 19.3 91 1.0 E 22 35 12 19 1013.2 1012.2 0.4
17/03:49pm 20.8 19.1 18.9 89 1.2 E 26 35 14 19 1013.0 1011.9 0.4
17/03:30pm 23.3 24.8 18.8 76 2.9 SSE 9 17 5 9 1012.9 1011.8 0.4
17/03:00pm 25.0 25.0 18.2 66 4.3 SE 15 20 8 11 1012.8 1011.7 0.0
17/02:30pm 25.4 26.0 18.6 66 4.4 SE 13 20 7 11 1012.8 1011.7 0.0
17/02:00pm 24.9 25.4 17.4 63 4.7 SE 11 20 6 11 1013.4 1012.4 0.0
17/01:30pm 24.6 25.0 18.1 67 4.1 ESE 13 19 7 10 1013.8 1012.8 0.0
17/01:00pm 23.8 24.5 18.0 70 3.7 SE 11 19 6 10 1014.6 1013.6 0.0
17/12:30pm 22.9 23.5 17.6 72 3.3 SE 11 19 6 10 1015.0 1014.0 0.0
17/12:00pm 23.2 23.4 17.7 71 3.4 SE 13 19 7 10 1015.5 1014.5 0.0
17/11:30am 22.7 22.5 17.6 73 3.2 ESE 15 22 8 12 1015.9 1014.9 0.0
17/11:00am 22.5 21.2 17.2 72 3.3 SE 20 26 11 14 1016.2 1015.2 0.0
17/10:30am 22.1 20.8 17.2 74 3.0 ESE 20 30 11 16 1016.4 1015.4 0.0
17/10:00am 21.6 20.3 17.2 76 2.7 ESE 20 32 11 17 1017.0 1015.9 0.0
17/09:30am 21.1 19.8 16.9 77 2.6 ESE 19 30 10 16 1017.2 1016.1 0.0
17/09:00am 20.6 18.7 16.6 78 2.4 SE 22 28 12 15 1017.0 1015.9 3.2
17/08:30am 20.2 19.4 16.2 78 2.4 SE 15 24 8 13 1017.0 1015.9 3.2
17/08:00am 19.8 19.5 16.4 81 2.1 SSE 13 20 7 11 1016.5 1015.5 3.2

Other Formats:

Comma delimited format used in spreadsheet applications
http://www.bom.gov.au/fwo/IDQ60801/IDQ60801.94396.axf

JavaScript Object Notation format (JSON) in row-major order
http://www.bom.gov.au/fwo/IDQ60801/IDQ60801.94396.json